sensor_id;sensor_type;location;lat;lon;timestamp;temperature;humidity
80958;DHT22;70419;42.700;23.316;2023-07-30T00:02:20;22.50;46.40
80958;DHT22;70419;42.700;23.316;2023-07-30T00:04:46;22.50;46.60
80958;DHT22;70419;42.700;23.316;2023-07-30T00:07:12;22.40;46.70
80958;DHT22;70419;42.700;23.316;2023-07-30T00:09:39;22.40;46.90
80958;DHT22;70419;42.700;23.316;2023-07-30T00:12:06;22.30;47.00
80958;DHT22;70419;42.700;23.316;2023-07-30T00:14:31;22.30;47.00
80958;DHT22;70419;42.700;23.316;2023-07-30T00:16:57;22.30;47.10
80958;DHT22;70419;42.700;23.316;2023-07-30T00:19:23;22.30;47.20
80958;DHT22;70419;42.700;23.316;2023-07-30T00:21:48;22.20;47.50
80958;DHT22;70419;42.700;23.316;2023-07-30T00:24:14;22.20;47.40
80958;DHT22;70419;42.700;23.316;2023-07-30T00:26:40;22.20;47.40
80958;DHT22;70419;42.700;23.316;2023-07-30T00:29:06;22.20;47.30
80958;DHT22;70419;42.700;23.316;2023-07-30T00:31:32;22.10;47.60
80958;DHT22;70419;42.700;23.316;2023-07-30T00:33:57;22.10;47.60
80958;DHT22;70419;42.700;23.316;2023-07-30T00:36:23;22.20;47.50
80958;DHT22;70419;42.700;23.316;2023-07-30T00:38:49;22.10;47.70
80958;DHT22;70419;42.700;23.316;2023-07-30T00:41:14;22.10;47.90
80958;DHT22;70419;42.700;23.316;2023-07-30T00:43:40;22.10;48.00
80958;DHT22;70419;42.700;23.316;2023-07-30T00:46:06;22.00;48.10
80958;DHT22;70419;42.700;23.316;2023-07-30T00:48:32;22.00;48.30
80958;DHT22;70419;42.700;23.316;2023-07-30T00:50:59;22.00;48.40
80958;DHT22;70419;42.700;23.316;2023-07-30T00:53:26;22.00;48.40
80958;DHT22;70419;42.700;23.316;2023-07-30T00:55:53;22.00;48.50
80958;DHT22;70419;42.700;23.316;2023-07-30T00:58:21;22.00;48.50
80958;DHT22;70419;42.700;23.316;2023-07-30T01:00:47;21.90;49.70
80958;DHT22;70419;42.700;23.316;2023-07-30T01:03:13;21.90;48.80
80958;DHT22;70419;42.700;23.316;2023-07-30T01:05:39;21.80;48.80
80958;DHT22;70419;42.700;23.316;2023-07-30T01:08:04;21.80;48.80
80958;DHT22;70419;42.700;23.316;2023-07-30T01:10:32;21.90;49.00
80958;DHT22;70419;42.700;23.316;2023-07-30T01:13:01;21.70;49.10
80958;DHT22;70419;42.700;23.316;2023-07-30T01:15:28;21.60;49.30
80958;DHT22;70419;42.700;23.316;2023-07-30T01:17:55;21.70;49.50
80958;DHT22;70419;42.700;23.316;2023-07-30T01:20:21;21.50;49.60
80958;DHT22;70419;42.700;23.316;2023-07-30T01:22:47;21.50;49.80
80958;DHT22;70419;42.700;23.316;2023-07-30T01:25:14;21.50;50.00
80958;DHT22;70419;42.700;23.316;2023-07-30T01:27:48;21.50;50.10
80958;DHT22;70419;42.700;23.316;2023-07-30T01:30:22;21.40;50.10
80958;DHT22;70419;42.700;23.316;2023-07-30T01:32:50;21.40;50.20
80958;DHT22;70419;42.700;23.316;2023-07-30T01:35:20;21.40;50.10
80958;DHT22;70419;42.700;23.316;2023-07-30T01:37:47;21.40;50.10
80958;DHT22;70419;42.700;23.316;2023-07-30T01:40:14;21.30;50.00
80958;DHT22;70419;42.700;23.316;2023-07-30T01:42:40;21.30;50.20
80958;DHT22;70419;42.700;23.316;2023-07-30T01:45:06;21.30;50.40
80958;DHT22;70419;42.700;23.316;2023-07-30T01:47:32;21.20;50.60
80958;DHT22;70419;42.700;23.316;2023-07-30T01:49:58;21.20;50.50
80958;DHT22;70419;42.700;23.316;2023-07-30T01:52:24;21.20;50.50
80958;DHT22;70419;42.700;23.316;2023-07-30T01:54:51;21.20;50.40
80958;DHT22;70419;42.700;23.316;2023-07-30T01:57:16;21.20;50.40
80958;DHT22;70419;42.700;23.316;2023-07-30T01:59:42;21.20;50.50
80958;DHT22;70419;42.700;23.316;2023-07-30T02:02:08;21.10;50.60
80958;DHT22;70419;42.700;23.316;2023-07-30T02:04:33;21.10;50.70
80958;DHT22;70419;42.700;23.316;2023-07-30T02:06:59;21.10;50.70
80958;DHT22;70419;42.700;23.316;2023-07-30T02:09:25;21.00;50.70
80958;DHT22;70419;42.700;23.316;2023-07-30T02:11:51;21.00;50.80
80958;DHT22;70419;42.700;23.316;2023-07-30T02:14:18;21.00;50.70
80958;DHT22;70419;42.700;23.316;2023-07-30T02:16:44;21.00;50.70
80958;DHT22;70419;42.700;23.316;2023-07-30T02:19:09;21.00;51.00
80958;DHT22;70419;42.700;23.316;2023-07-30T02:21:35;20.90;51.20
80958;DHT22;70419;42.700;23.316;2023-07-30T02:24:03;20.90;51.60
80958;DHT22;70419;42.700;23.316;2023-07-30T02:26:28;20.90;51.60
80958;DHT22;70419;42.700;23.316;2023-07-30T02:28:54;20.90;51.60
80958;DHT22;70419;42.700;23.316;2023-07-30T02:31:20;20.80;51.90
80958;DHT22;70419;42.700;23.316;2023-07-30T02:33:46;20.80;52.00
80958;DHT22;70419;42.700;23.316;2023-07-30T02:36:12;20.70;52.10
80958;DHT22;70419;42.700;23.316;2023-07-30T02:38:37;20.70;51.90
80958;DHT22;70419;42.700;23.316;2023-07-30T02:41:03;20.70;51.90
80958;DHT22;70419;42.700;23.316;2023-07-30T02:43:29;20.70;52.00
80958;DHT22;70419;42.700;23.316;2023-07-30T02:45:55;20.70;52.20
80958;DHT22;70419;42.700;23.316;2023-07-30T02:48:20;20.60;52.50
80958;DHT22;70419;42.700;23.316;2023-07-30T02:50:46;20.60;52.40
80958;DHT22;70419;42.700;23.316;2023-07-30T02:53:12;20.60;52.60
80958;DHT22;70419;42.700;23.316;2023-07-30T02:55:37;20.60;52.60
80958;DHT22;70419;42.700;23.316;2023-07-30T02:58:03;20.60;52.70
80958;DHT22;70419;42.700;23.316;2023-07-30T03:00:29;20.60;52.80
80958;DHT22;70419;42.700;23.316;2023-07-30T03:02:55;20.60;52.80
80958;DHT22;70419;42.700;23.316;2023-07-30T03:05:22;20.60;52.80
80958;DHT22;70419;42.700;23.316;2023-07-30T03:07:48;20.60;52.80
80958;DHT22;70419;42.700;23.316;2023-07-30T03:10:14;20.50;52.80
80958;DHT22;70419;42.700;23.316;2023-07-30T03:12:40;20.50;52.80
80958;DHT22;70419;42.700;23.316;2023-07-30T03:15:05;20.50;52.80
80958;DHT22;70419;42.700;23.316;2023-07-30T03:17:31;20.50;52.90
80958;DHT22;70419;42.700;23.316;2023-07-30T03:19:57;20.50;52.70
80958;DHT22;70419;42.700;23.316;2023-07-30T03:22:23;20.60;52.50
80958;DHT22;70419;42.700;23.316;2023-07-30T03:24:49;20.50;52.40
80958;DHT22;70419;42.700;23.316;2023-07-30T03:27:15;20.50;52.40
80958;DHT22;70419;42.700;23.316;2023-07-30T03:29:40;20.50;52.50
80958;DHT22;70419;42.700;23.316;2023-07-30T03:32:06;20.50;52.60
80958;DHT22;70419;42.700;23.316;2023-07-30T03:34:32;20.60;52.40
80958;DHT22;70419;42.700;23.316;2023-07-30T03:36:58;20.50;52.00
80958;DHT22;70419;42.700;23.316;2023-07-30T03:39:25;20.60;51.90
80958;DHT22;70419;42.700;23.316;2023-07-30T03:41:51;20.50;51.70
80958;DHT22;70419;42.700;23.316;2023-07-30T03:44:17;20.50;51.80
80958;DHT22;70419;42.700;23.316;2023-07-30T03:46:43;20.50;51.80
80958;DHT22;70419;42.700;23.316;2023-07-30T03:49:09;20.60;51.70
80958;DHT22;70419;42.700;23.316;2023-07-30T03:51:35;20.70;51.50
80958;DHT22;70419;42.700;23.316;2023-07-30T03:54:00;20.70;51.60
80958;DHT22;70419;42.700;23.316;2023-07-30T03:56:27;20.70;51.30
80958;DHT22;70419;42.700;23.316;2023-07-30T03:58:53;20.70;51.30
80958;DHT22;70419;42.700;23.316;2023-07-30T04:01:19;20.70;51.30
80958;DHT22;70419;42.700;23.316;2023-07-30T04:03:45;20.70;51.00
80958;DHT22;70419;42.700;23.316;2023-07-30T04:06:10;20.70;51.20
80958;DHT22;70419;42.700;23.316;2023-07-30T04:08:36;20.80;51.20
80958;DHT22;70419;42.700;23.316;2023-07-30T04:11:02;20.90;51.10
80958;DHT22;70419;42.700;23.316;2023-07-30T04:13:28;21.00;50.80
80958;DHT22;70419;42.700;23.316;2023-07-30T04:15:53;21.10;50.70
80958;DHT22;70419;42.700;23.316;2023-07-30T04:18:19;21.00;50.40
80958;DHT22;70419;42.700;23.316;2023-07-30T04:20:45;21.10;50.60
80958;DHT22;70419;42.700;23.316;2023-07-30T04:23:11;21.10;50.40
80958;DHT22;70419;42.700;23.316;2023-07-30T04:25:36;21.20;50.20
80958;DHT22;70419;42.700;23.316;2023-07-30T04:28:02;21.40;50.00
80958;DHT22;70419;42.700;23.316;2023-07-30T04:30:28;21.30;49.90
80958;DHT22;70419;42.700;23.316;2023-07-30T04:32:53;21.30;49.70
80958;DHT22;70419;42.700;23.316;2023-07-30T04:35:19;21.40;49.80
80958;DHT22;70419;42.700;23.316;2023-07-30T04:37:45;21.50;49.70
80958;DHT22;70419;42.700;23.316;2023-07-30T04:40:11;21.50;49.50
80958;DHT22;70419;42.700;23.316;2023-07-30T04:42:36;21.50;49.50
80958;DHT22;70419;42.700;23.316;2023-07-30T04:45:02;21.60;49.40
80958;DHT22;70419;42.700;23.316;2023-07-30T04:47:28;21.60;49.20
80958;DHT22;70419;42.700;23.316;2023-07-30T04:49:54;21.80;49.00
80958;DHT22;70419;42.700;23.316;2023-07-30T04:52:19;21.90;48.70
80958;DHT22;70419;42.700;23.316;2023-07-30T04:54:45;21.90;48.50
80958;DHT22;70419;42.700;23.316;2023-07-30T04:57:11;22.00;48.30
80958;DHT22;70419;42.700;23.316;2023-07-30T04:59:36;22.10;48.20
80958;DHT22;70419;42.700;23.316;2023-07-30T05:02:02;22.20;48.00
80958;DHT22;70419;42.700;23.316;2023-07-30T05:04:28;22.20;47.80
80958;DHT22;70419;42.700;23.316;2023-07-30T05:06:54;22.40;47.70
80958;DHT22;70419;42.700;23.316;2023-07-30T05:09:20;22.50;47.40
80958;DHT22;70419;42.700;23.316;2023-07-30T05:11:48;22.50;47.20
80958;DHT22;70419;42.700;23.316;2023-07-30T05:14:14;22.60;47.10
80958;DHT22;70419;42.700;23.316;2023-07-30T05:16:39;22.70;46.90
80958;DHT22;70419;42.700;23.316;2023-07-30T05:19:05;22.70;46.60
80958;DHT22;70419;42.700;23.316;2023-07-30T05:21:31;22.90;46.50
80958;DHT22;70419;42.700;23.316;2023-07-30T05:23:56;23.00;46.10
80958;DHT22;70419;42.700;23.316;2023-07-30T05:26:22;23.10;46.00
80958;DHT22;70419;42.700;23.316;2023-07-30T05:28:48;23.10;45.70
80958;DHT22;70419;42.700;23.316;2023-07-30T05:31:14;23.20;45.40
80958;DHT22;70419;42.700;23.316;2023-07-30T05:33:39;23.30;45.00
80958;DHT22;70419;42.700;23.316;2023-07-30T05:36:05;23.40;44.70
80958;DHT22;70419;42.700;23.316;2023-07-30T05:38:32;23.50;44.40
80958;DHT22;70419;42.700;23.316;2023-07-30T05:40:57;23.60;44.40
80958;DHT22;70419;42.700;23.316;2023-07-30T05:43:23;23.60;44.40
80958;DHT22;70419;42.700;23.316;2023-07-30T05:45:49;23.80;44.20
80958;DHT22;70419;42.700;23.316;2023-07-30T05:48:15;23.90;43.90
80958;DHT22;70419;42.700;23.316;2023-07-30T05:50:40;24.00;43.60
80958;DHT22;70419;42.700;23.316;2023-07-30T05:53:06;24.10;43.40
80958;DHT22;70419;42.700;23.316;2023-07-30T05:55:32;24.30;43.40
80958;DHT22;70419;42.700;23.316;2023-07-30T05:57:58;24.30;43.20
80958;DHT22;70419;42.700;23.316;2023-07-30T06:00:23;24.50;42.90
80958;DHT22;70419;42.700;23.316;2023-07-30T06:02:49;24.60;42.70
80958;DHT22;70419;42.700;23.316;2023-07-30T06:05:15;24.70;42.60
80958;DHT22;70419;42.700;23.316;2023-07-30T06:07:41;24.80;42.30
80958;DHT22;70419;42.700;23.316;2023-07-30T06:10:07;24.90;42.20
80958;DHT22;70419;42.700;23.316;2023-07-30T06:12:33;25.10;41.60
80958;DHT22;70419;42.700;23.316;2023-07-30T06:14:58;25.20;41.50
80958;DHT22;70419;42.700;23.316;2023-07-30T06:17:24;25.30;41.30
80958;DHT22;70419;42.700;23.316;2023-07-30T06:19:50;25.30;42.00
80958;DHT22;70419;42.700;23.316;2023-07-30T06:22:16;25.30;41.10
80958;DHT22;70419;42.700;23.316;2023-07-30T06:24:41;25.40;41.00
80958;DHT22;70419;42.700;23.316;2023-07-30T06:27:07;25.70;40.90
80958;DHT22;70419;42.700;23.316;2023-07-30T06:29:35;25.70;40.60
80958;DHT22;70419;42.700;23.316;2023-07-30T06:32:01;25.90;40.30
80958;DHT22;70419;42.700;23.316;2023-07-30T06:34:27;26.00;39.90
80958;DHT22;70419;42.700;23.316;2023-07-30T06:36:52;26.10;39.30
80958;DHT22;70419;42.700;23.316;2023-07-30T06:39:18;26.30;39.40
80958;DHT22;70419;42.700;23.316;2023-07-30T06:41:44;26.30;39.00
80958;DHT22;70419;42.700;23.316;2023-07-30T06:44:10;26.50;37.90
80958;DHT22;70419;42.700;23.316;2023-07-30T06:46:35;26.50;38.50
80958;DHT22;70419;42.700;23.316;2023-07-30T06:49:01;26.60;38.20
80958;DHT22;70419;42.700;23.316;2023-07-30T06:51:27;26.80;37.60
80958;DHT22;70419;42.700;23.316;2023-07-30T06:53:53;26.80;37.70
80958;DHT22;70419;42.700;23.316;2023-07-30T06:56:18;26.90;37.10
80958;DHT22;70419;42.700;23.316;2023-07-30T06:58:44;26.90;37.30
80958;DHT22;70419;42.700;23.316;2023-07-30T07:01:10;27.00;36.90
80958;DHT22;70419;42.700;23.316;2023-07-30T07:03:36;27.10;36.80
80958;DHT22;70419;42.700;23.316;2023-07-30T07:06:02;27.30;36.70
80958;DHT22;70419;42.700;23.316;2023-07-30T07:08:28;27.20;35.90
80958;DHT22;70419;42.700;23.316;2023-07-30T07:10:54;27.20;35.90
80958;DHT22;70419;42.700;23.316;2023-07-30T07:13:19;27.30;36.00
80958;DHT22;70419;42.700;23.316;2023-07-30T07:15:45;27.40;35.60
80958;DHT22;70419;42.700;23.316;2023-07-30T07:18:11;27.50;35.30
80958;DHT22;70419;42.700;23.316;2023-07-30T07:20:37;27.50;34.80
80958;DHT22;70419;42.700;23.316;2023-07-30T07:23:03;27.60;34.20
80958;DHT22;70419;42.700;23.316;2023-07-30T07:25:29;27.60;34.60
80958;DHT22;70419;42.700;23.316;2023-07-30T07:27:56;27.90;34.00
80958;DHT22;70419;42.700;23.316;2023-07-30T07:30:22;28.00;33.60
80958;DHT22;70419;42.700;23.316;2023-07-30T07:32:48;28.20;33.50
80958;DHT22;70419;42.700;23.316;2023-07-30T07:35:19;28.20;33.20
80958;DHT22;70419;42.700;23.316;2023-07-30T07:37:45;28.30;33.10
80958;DHT22;70419;42.700;23.316;2023-07-30T07:40:11;28.50;33.20
80958;DHT22;70419;42.700;23.316;2023-07-30T07:42:38;28.50;33.00
80958;DHT22;70419;42.700;23.316;2023-07-30T07:45:06;28.70;32.70
80958;DHT22;70419;42.700;23.316;2023-07-30T07:47:32;28.90;31.80
80958;DHT22;70419;42.700;23.316;2023-07-30T07:49:58;29.10;31.60
80958;DHT22;70419;42.700;23.316;2023-07-30T07:52:23;28.70;31.90
80958;DHT22;70419;42.700;23.316;2023-07-30T07:54:49;28.80;32.00
80958;DHT22;70419;42.700;23.316;2023-07-30T07:57:15;29.00;31.80
80958;DHT22;70419;42.700;23.316;2023-07-30T07:59:41;29.40;30.90
80958;DHT22;70419;42.700;23.316;2023-07-30T08:02:12;30.00;30.10
80958;DHT22;70419;42.700;23.316;2023-07-30T08:04:38;31.00;29.20
80958;DHT22;70419;42.700;23.316;2023-07-30T08:07:04;32.70;27.00
80958;DHT22;70419;42.700;23.316;2023-07-30T08:09:31;34.80;24.70
80958;DHT22;70419;42.700;23.316;2023-07-30T08:11:57;37.00;22.60
80958;DHT22;70419;42.700;23.316;2023-07-30T08:14:22;38.70;21.00
80958;DHT22;70419;42.700;23.316;2023-07-30T08:16:48;39.90;20.00
80958;DHT22;70419;42.700;23.316;2023-07-30T08:19:14;41.70;18.80
80958;DHT22;70419;42.700;23.316;2023-07-30T08:21:40;43.10;17.40
80958;DHT22;70419;42.700;23.316;2023-07-30T08:24:05;44.70;16.40
80958;DHT22;70419;42.700;23.316;2023-07-30T08:26:32;45.90;15.40
80958;DHT22;70419;42.700;23.316;2023-07-30T08:28:57;47.00;14.60
80958;DHT22;70419;42.700;23.316;2023-07-30T08:31:23;47.90;13.80
80958;DHT22;70419;42.700;23.316;2023-07-30T08:33:49;48.40;13.30
80958;DHT22;70419;42.700;23.316;2023-07-30T08:36:15;48.90;13.10
80958;DHT22;70419;42.700;23.316;2023-07-30T08:38:41;49.20;12.30
80958;DHT22;70419;42.700;23.316;2023-07-30T08:41:07;49.00;12.70
80958;DHT22;70419;42.700;23.316;2023-07-30T08:43:34;49.80;12.30
80958;DHT22;70419;42.700;23.316;2023-07-30T08:46:00;50.30;11.90
80958;DHT22;70419;42.700;23.316;2023-07-30T08:48:27;50.00;11.90
80958;DHT22;70419;42.700;23.316;2023-07-30T08:50:56;50.00;12.90
80958;DHT22;70419;42.700;23.316;2023-07-30T08:53:24;50.90;11.60
80958;DHT22;70419;42.700;23.316;2023-07-30T08:55:54;51.60;11.20
80958;DHT22;70419;42.700;23.316;2023-07-30T08:58:22;52.20;10.90
80958;DHT22;70419;42.700;23.316;2023-07-30T09:00:49;53.00;10.60
80958;DHT22;70419;42.700;23.316;2023-07-30T09:03:17;53.60;10.20
80958;DHT22;70419;42.700;23.316;2023-07-30T09:05:44;54.20;10.00
80958;DHT22;70419;42.700;23.316;2023-07-30T09:08:10;54.60;9.50
80958;DHT22;70419;42.700;23.316;2023-07-30T09:10:40;55.00;9.40
80958;DHT22;70419;42.700;23.316;2023-07-30T09:13:06;55.60;9.10
80958;DHT22;70419;42.700;23.316;2023-07-30T09:15:33;55.90;8.90
80958;DHT22;70419;42.700;23.316;2023-07-30T09:18:00;56.30;8.70
80958;DHT22;70419;42.700;23.316;2023-07-30T09:20:26;56.50;8.60
80958;DHT22;70419;42.700;23.316;2023-07-30T09:22:52;56.80;8.50
80958;DHT22;70419;42.700;23.316;2023-07-30T09:25:21;56.90;8.40
80958;DHT22;70419;42.700;23.316;2023-07-30T09:27:54;57.20;8.20
80958;DHT22;70419;42.700;23.316;2023-07-30T09:30:25;57.70;7.70
80958;DHT22;70419;42.700;23.316;2023-07-30T09:32:55;58.10;7.60
80958;DHT22;70419;42.700;23.316;2023-07-30T09:35:22;58.40;7.40
80958;DHT22;70419;42.700;23.316;2023-07-30T09:37:57;58.60;7.20
80958;DHT22;70419;42.700;23.316;2023-07-30T09:40:31;58.90;6.70
80958;DHT22;70419;42.700;23.316;2023-07-30T09:42:57;59.50;6.50
80958;DHT22;70419;42.700;23.316;2023-07-30T09:45:24;59.20;7.30
80958;DHT22;70419;42.700;23.316;2023-07-30T09:47:51;58.20;7.30
80958;DHT22;70419;42.700;23.316;2023-07-30T09:50:17;57.40;7.40
80958;DHT22;70419;42.700;23.316;2023-07-30T09:52:43;57.00;7.50
80958;DHT22;70419;42.700;23.316;2023-07-30T09:55:09;57.60;7.40
80958;DHT22;70419;42.700;23.316;2023-07-30T09:57:36;58.60;7.20
80958;DHT22;70419;42.700;23.316;2023-07-30T10:00:06;59.40;6.90
80958;DHT22;70419;42.700;23.316;2023-07-30T10:02:39;60.20;6.30
80958;DHT22;70419;42.700;23.316;2023-07-30T10:05:17;60.10;6.50
80958;DHT22;70419;42.700;23.316;2023-07-30T10:08:10;60.30;6.50
80958;DHT22;70419;42.700;23.316;2023-07-30T10:10:37;61.10;6.30
80958;DHT22;70419;42.700;23.316;2023-07-30T10:13:08;61.40;5.90
80958;DHT22;70419;42.700;23.316;2023-07-30T10:15:37;61.80;5.80
80958;DHT22;70419;42.700;23.316;2023-07-30T10:18:03;62.10;5.80
80958;DHT22;70419;42.700;23.316;2023-07-30T10:20:31;62.10;5.60
80958;DHT22;70419;42.700;23.316;2023-07-30T10:22:58;62.10;5.60
80958;DHT22;70419;42.700;23.316;2023-07-30T10:25:43;62.20;5.70
80958;DHT22;70419;42.700;23.316;2023-07-30T10:28:34;62.30;5.40
80958;DHT22;70419;42.700;23.316;2023-07-30T10:31:07;62.50;5.50
80958;DHT22;70419;42.700;23.316;2023-07-30T10:33:51;62.60;5.40
80958;DHT22;70419;42.700;23.316;2023-07-30T10:36:31;62.70;5.40
80958;DHT22;70419;42.700;23.316;2023-07-30T10:39:15;63.00;5.40
80958;DHT22;70419;42.700;23.316;2023-07-30T10:41:46;63.30;5.10
80958;DHT22;70419;42.700;23.316;2023-07-30T10:44:24;63.30;5.10
80958;DHT22;70419;42.700;23.316;2023-07-30T10:46:58;60.70;5.90
80958;DHT22;70419;42.700;23.316;2023-07-30T10:49:25;60.70;6.00
80958;DHT22;70419;42.700;23.316;2023-07-30T10:51:51;60.90;5.80
80958;DHT22;70419;42.700;23.316;2023-07-30T10:54:17;60.60;5.60
80958;DHT22;70419;42.700;23.316;2023-07-30T10:56:42;61.20;5.80
80958;DHT22;70419;42.700;23.316;2023-07-30T10:59:08;61.70;5.60
80958;DHT22;70419;42.700;23.316;2023-07-30T11:01:38;62.50;5.40
80958;DHT22;70419;42.700;23.316;2023-07-30T11:04:19;62.30;5.30
80958;DHT22;70419;42.700;23.316;2023-07-30T11:06:50;63.00;5.10
80958;DHT22;70419;42.700;23.316;2023-07-30T11:09:23;63.10;5.00
80958;DHT22;70419;42.700;23.316;2023-07-30T11:11:51;63.40;5.00
80958;DHT22;70419;42.700;23.316;2023-07-30T11:14:22;63.10;4.70
80958;DHT22;70419;42.700;23.316;2023-07-30T11:16:59;62.60;5.10
80958;DHT22;70419;42.700;23.316;2023-07-30T11:19:26;60.70;5.70
80958;DHT22;70419;42.700;23.316;2023-07-30T11:21:54;60.30;5.90
80958;DHT22;70419;42.700;23.316;2023-07-30T11:24:21;59.80;6.00
80958;DHT22;70419;42.700;23.316;2023-07-30T11:27:00;59.90;5.90
80958;DHT22;70419;42.700;23.316;2023-07-30T11:29:28;60.10;5.90
80958;DHT22;70419;42.700;23.316;2023-07-30T11:31:57;60.00;5.90
80958;DHT22;70419;42.700;23.316;2023-07-30T11:34:23;60.60;5.70
80958;DHT22;70419;42.700;23.316;2023-07-30T11:36:49;61.20;5.50
80958;DHT22;70419;42.700;23.316;2023-07-30T11:39:15;61.40;5.50
80958;DHT22;70419;42.700;23.316;2023-07-30T11:41:41;61.80;5.40
80958;DHT22;70419;42.700;23.316;2023-07-30T11:44:07;62.10;5.10
80958;DHT22;70419;42.700;23.316;2023-07-30T11:46:33;62.50;5.20
80958;DHT22;70419;42.700;23.316;2023-07-30T11:49:15;63.00;5.00
80958;DHT22;70419;42.700;23.316;2023-07-30T11:51:42;62.70;5.00
80958;DHT22;70419;42.700;23.316;2023-07-30T11:54:18;62.90;5.10
80958;DHT22;70419;42.700;23.316;2023-07-30T11:56:43;62.80;4.90
80958;DHT22;70419;42.700;23.316;2023-07-30T11:59:09;63.30;4.80
80958;DHT22;70419;42.700;23.316;2023-07-30T12:01:36;63.40;4.90
80958;DHT22;70419;42.700;23.316;2023-07-30T12:04:06;63.80;4.80
80958;DHT22;70419;42.700;23.316;2023-07-30T12:06:42;64.20;4.60
80958;DHT22;70419;42.700;23.316;2023-07-30T12:11:49;64.30;4.50
80958;DHT22;70419;42.700;23.316;2023-07-30T12:14:16;64.10;4.60
80958;DHT22;70419;42.700;23.316;2023-07-30T12:16:42;63.90;4.40
80958;DHT22;70419;42.700;23.316;2023-07-30T12:19:08;62.80;4.80
80958;DHT22;70419;42.700;23.316;2023-07-30T12:21:33;59.80;5.60
80958;DHT22;70419;42.700;23.316;2023-07-30T12:23:59;58.90;6.00
80958;DHT22;70419;42.700;23.316;2023-07-30T12:26:25;59.10;6.00
80958;DHT22;70419;42.700;23.316;2023-07-30T12:28:51;59.00;6.00
80958;DHT22;70419;42.700;23.316;2023-07-30T12:31:16;58.70;6.00
80958;DHT22;70419;42.700;23.316;2023-07-30T12:33:43;59.00;6.00
80958;DHT22;70419;42.700;23.316;2023-07-30T12:36:09;59.20;6.00
80958;DHT22;70419;42.700;23.316;2023-07-30T12:38:34;59.60;5.90
80958;DHT22;70419;42.700;23.316;2023-07-30T12:41:00;59.60;6.70
80958;DHT22;70419;42.700;23.316;2023-07-30T12:43:26;59.50;6.00
80958;DHT22;70419;42.700;23.316;2023-07-30T12:45:52;59.50;6.10
80958;DHT22;70419;42.700;23.316;2023-07-30T12:48:17;58.30;6.40
80958;DHT22;70419;42.700;23.316;2023-07-30T12:50:43;56.90;6.90
80958;DHT22;70419;42.700;23.316;2023-07-30T12:53:09;56.30;7.30
80958;DHT22;70419;42.700;23.316;2023-07-30T12:55:35;56.30;7.30
80958;DHT22;70419;42.700;23.316;2023-07-30T12:58:00;55.30;7.20
80958;DHT22;70419;42.700;23.316;2023-07-30T13:00:29;53.50;8.20
80958;DHT22;70419;42.700;23.316;2023-07-30T13:02:55;53.60;8.20
80958;DHT22;70419;42.700;23.316;2023-07-30T13:05:22;54.00;8.10
80958;DHT22;70419;42.700;23.316;2023-07-30T13:07:48;55.10;7.70
80958;DHT22;70419;42.700;23.316;2023-07-30T13:10:14;54.60;7.70
80958;DHT22;70419;42.700;23.316;2023-07-30T13:12:40;54.20;7.80
80958;DHT22;70419;42.700;23.316;2023-07-30T13:15:07;54.10;8.20
80958;DHT22;70419;42.700;23.316;2023-07-30T13:17:33;53.40;8.30
80958;DHT22;70419;42.700;23.316;2023-07-30T13:19:58;53.20;8.40
80958;DHT22;70419;42.700;23.316;2023-07-30T13:22:25;53.30;8.20
80958;DHT22;70419;42.700;23.316;2023-07-30T13:24:51;53.50;8.20
80958;DHT22;70419;42.700;23.316;2023-07-30T13:27:17;54.00;8.20
80958;DHT22;70419;42.700;23.316;2023-07-30T13:29:43;53.50;8.40
80958;DHT22;70419;42.700;23.316;2023-07-30T13:32:09;53.00;8.50
80958;DHT22;70419;42.700;23.316;2023-07-30T13:34:36;51.80;8.70
80958;DHT22;70419;42.700;23.316;2023-07-30T13:37:01;50.50;9.50
80958;DHT22;70419;42.700;23.316;2023-07-30T13:39:27;49.40;10.00
80958;DHT22;70419;42.700;23.316;2023-07-30T13:41:53;48.30;10.60
80958;DHT22;70419;42.700;23.316;2023-07-30T13:44:20;47.30;10.90
80958;DHT22;70419;42.700;23.316;2023-07-30T13:46:46;46.40;11.40
80958;DHT22;70419;42.700;23.316;2023-07-30T13:49:13;45.40;12.10
80958;DHT22;70419;42.700;23.316;2023-07-30T13:51:38;44.10;12.90
80958;DHT22;70419;42.700;23.316;2023-07-30T13:54:04;43.50;13.30
80958;DHT22;70419;42.700;23.316;2023-07-30T13:56:33;42.90;13.20
80958;DHT22;70419;42.700;23.316;2023-07-30T13:58:59;42.30;14.00
80958;DHT22;70419;42.700;23.316;2023-07-30T14:01:25;42.00;14.10
80958;DHT22;70419;42.700;23.316;2023-07-30T14:03:51;42.10;14.20
80958;DHT22;70419;42.700;23.316;2023-07-30T14:06:17;42.80;13.70
80958;DHT22;70419;42.700;23.316;2023-07-30T14:08:43;43.90;13.40
80958;DHT22;70419;42.700;23.316;2023-07-30T14:11:08;44.00;13.20
80958;DHT22;70419;42.700;23.316;2023-07-30T14:13:34;43.70;13.30
80958;DHT22;70419;42.700;23.316;2023-07-30T14:16:00;43.80;13.40
80958;DHT22;70419;42.700;23.316;2023-07-30T14:18:26;44.70;13.00
80958;DHT22;70419;42.700;23.316;2023-07-30T14:20:52;45.60;12.30
80958;DHT22;70419;42.700;23.316;2023-07-30T14:23:18;45.70;12.10
80958;DHT22;70419;42.700;23.316;2023-07-30T14:25:44;45.10;12.50
80958;DHT22;70419;42.700;23.316;2023-07-30T14:28:10;44.20;13.10
80958;DHT22;70419;42.700;23.316;2023-07-30T14:30:36;42.80;13.90
80958;DHT22;70419;42.700;23.316;2023-07-30T14:33:03;41.60;14.60
80958;DHT22;70419;42.700;23.316;2023-07-30T14:35:29;41.00;14.80
80958;DHT22;70419;42.700;23.316;2023-07-30T14:37:55;40.50;15.50
80958;DHT22;70419;42.700;23.316;2023-07-30T14:40:24;40.00;15.60
80958;DHT22;70419;42.700;23.316;2023-07-30T14:42:50;39.60;16.40
80958;DHT22;70419;42.700;23.316;2023-07-30T14:45:17;39.50;16.40
80958;DHT22;70419;42.700;23.316;2023-07-30T14:47:43;39.10;16.50
80958;DHT22;70419;42.700;23.316;2023-07-30T14:50:10;38.90;17.00
80958;DHT22;70419;42.700;23.316;2023-07-30T14:52:36;38.30;17.50
80958;DHT22;70419;42.700;23.316;2023-07-30T14:55:01;38.20;17.80
80958;DHT22;70419;42.700;23.316;2023-07-30T14:57:27;38.30;17.90
80958;DHT22;70419;42.700;23.316;2023-07-30T14:59:53;38.80;17.60
80958;DHT22;70419;42.700;23.316;2023-07-30T15:02:19;40.20;16.40
80958;DHT22;70419;42.700;23.316;2023-07-30T15:04:45;42.00;15.20
80958;DHT22;70419;42.700;23.316;2023-07-30T15:07:11;42.70;14.90
80958;DHT22;70419;42.700;23.316;2023-07-30T15:09:37;42.40;14.90
80958;DHT22;70419;42.700;23.316;2023-07-30T15:12:05;41.90;15.20
80958;DHT22;70419;42.700;23.316;2023-07-30T15:14:32;41.20;15.60
80958;DHT22;70419;42.700;23.316;2023-07-30T15:16:58;40.50;16.10
80958;DHT22;70419;42.700;23.316;2023-07-30T15:19:24;39.90;16.40
80958;DHT22;70419;42.700;23.316;2023-07-30T15:21:50;39.30;16.80